sensor_id;sensor_type;location;lat;lon;timestamp;P1;durP1;ratioP1;P2;durP2;ratioP2
20449;SDS011;10384;51.940;8.432;2023-07-31T00:00:03;2.63;;;1.17;;
20449;SDS011;10384;51.940;8.432;2023-07-31T00:02:29;2.37;;;1.17;;
20449;SDS011;10384;51.940;8.432;2023-07-31T00:04:55;1.60;;;1.43;;
20449;SDS011;10384;51.940;8.432;2023-07-31T00:07:21;1.60;;;1.03;;
20449;SDS011;10384;51.940;8.432;2023-07-31T00:09:47;1.73;;;1.20;;
20449;SDS011;10384;51.940;8.432;2023-07-31T00:12:13;2.20;;;1.50;;
20449;SDS011;10384;51.940;8.432;2023-07-31T00:14:39;2.40;;;1.10;;
20449;SDS011;10384;51.940;8.432;2023-07-31T00:17:05;1.40;;;1.10;;
20449;SDS011;10384;51.940;8.432;2023-07-31T00:19:31;1.80;;;1.23;;
20449;SDS011;10384;51.940;8.432;2023-07-31T00:21:57;3.13;;;1.20;;
20449;SDS011;10384;51.940;8.432;2023-07-31T00:24:23;1.60;;;1.40;;
20449;SDS011;10384;51.940;8.432;2023-07-31T00:26:49;2.13;;;1.30;;
20449;SDS011;10384;51.940;8.432;2023-07-31T00:29:15;2.43;;;1.70;;
20449;SDS011;10384;51.940;8.432;2023-07-31T00:31:41;1.50;;;1.20;;
20449;SDS011;10384;51.940;8.432;2023-07-31T00:34:07;1.80;;;1.37;;
20449;SDS011;10384;51.940;8.432;2023-07-31T00:36:33;2.33;;;1.37;;
20449;SDS011;10384;51.940;8.432;2023-07-31T00:38:59;2.00;;;1.30;;
20449;SDS011;10384;51.940;8.432;2023-07-31T00:41:24;1.80;;;1.47;;
20449;SDS011;10384;51.940;8.432;2023-07-31T00:43:50;2.53;;;1.13;;
20449;SDS011;10384;51.940;8.432;2023-07-31T00:46:16;1.97;;;1.40;;
20449;SDS011;10384;51.940;8.432;2023-07-31T00:48:42;2.90;;;1.43;;
20449;SDS011;10384;51.940;8.432;2023-07-31T00:51:09;2.33;;;1.10;;
20449;SDS011;10384;51.940;8.432;2023-07-31T00:53:35;2.37;;;1.30;;
20449;SDS011;10384;51.940;8.432;2023-07-31T00:56:01;1.70;;;1.00;;
20449;SDS011;10384;51.940;8.432;2023-07-31T00:58:27;1.97;;;1.30;;
20449;SDS011;10384;51.940;8.432;2023-07-31T01:00:53;1.77;;;1.37;;
20449;SDS011;10384;51.940;8.432;2023-07-31T01:03:19;2.87;;;1.67;;
20449;SDS011;10384;51.940;8.432;2023-07-31T01:05:51;3.00;;;1.17;;
20449;SDS011;10384;51.940;8.432;2023-07-31T01:10:58;1.60;;;1.10;;
20449;SDS011;10384;51.940;8.432;2023-07-31T01:13:26;2.23;;;1.30;;
20449;SDS011;10384;51.940;8.432;2023-07-31T01:15:52;1.77;;;0.93;;
20449;SDS011;10384;51.940;8.432;2023-07-31T01:18:18;1.60;;;1.37;;
20449;SDS011;10384;51.940;8.432;2023-07-31T01:20:44;1.50;;;1.10;;
20449;SDS011;10384;51.940;8.432;2023-07-31T01:26:11;3.17;;;0.90;;
20449;SDS011;10384;51.940;8.432;2023-07-31T01:28:50;1.93;;;1.23;;
20449;SDS011;10384;51.940;8.432;2023-07-31T01:31:24;1.60;;;1.00;;
20449;SDS011;10384;51.940;8.432;2023-07-31T01:33:50;1.77;;;1.00;;
20449;SDS011;10384;51.940;8.432;2023-07-31T01:36:19;3.00;;;1.40;;
20449;SDS011;10384;51.940;8.432;2023-07-31T01:38:45;3.07;;;1.20;;
20449;SDS011;10384;51.940;8.432;2023-07-31T01:41:11;2.50;;;1.23;;
20449;SDS011;10384;51.940;8.432;2023-07-31T01:43:37;2.60;;;1.20;;
20449;SDS011;10384;51.940;8.432;2023-07-31T01:46:03;2.70;;;1.03;;
20449;SDS011;10384;51.940;8.432;2023-07-31T01:48:29;2.27;;;1.77;;
20449;SDS011;10384;51.940;8.432;2023-07-31T01:51:00;1.73;;;1.13;;
20449;SDS011;10384;51.940;8.432;2023-07-31T01:53:27;4.10;;;1.30;;
20449;SDS011;10384;51.940;8.432;2023-07-31T01:55:53;3.40;;;1.50;;
20449;SDS011;10384;51.940;8.432;2023-07-31T01:58:19;3.60;;;1.53;;
20449;SDS011;10384;51.940;8.432;2023-07-31T02:00:45;2.80;;;1.30;;
20449;SDS011;10384;51.940;8.432;2023-07-31T02:03:11;2.07;;;0.93;;
20449;SDS011;10384;51.940;8.432;2023-07-31T02:05:43;1.70;;;1.10;;
20449;SDS011;10384;51.940;8.432;2023-07-31T02:08:09;3.63;;;1.30;;
20449;SDS011;10384;51.940;8.432;2023-07-31T02:10:35;3.07;;;0.97;;
20449;SDS011;10384;51.940;8.432;2023-07-31T02:13:01;3.53;;;1.03;;
20449;SDS011;10384;51.940;8.432;2023-07-31T02:15:28;1.60;;;0.80;;
20449;SDS011;10384;51.940;8.432;2023-07-31T02:17:54;2.13;;;1.10;;
20449;SDS011;10384;51.940;8.432;2023-07-31T02:20:20;3.00;;;0.80;;
20449;SDS011;10384;51.940;8.432;2023-07-31T02:22:46;2.20;;;1.13;;
20449;SDS011;10384;51.940;8.432;2023-07-31T02:25:12;1.83;;;1.07;;
20449;SDS011;10384;51.940;8.432;2023-07-31T02:27:38;1.83;;;1.07;;
20449;SDS011;10384;51.940;8.432;2023-07-31T02:30:04;1.27;;;0.93;;
20449;SDS011;10384;51.940;8.432;2023-07-31T02:32:30;1.40;;;0.87;;
20449;SDS011;10384;51.940;8.432;2023-07-31T02:34:56;2.50;;;1.00;;
20449;SDS011;10384;51.940;8.432;2023-07-31T02:37:23;2.33;;;1.30;;
20449;SDS011;10384;51.940;8.432;2023-07-31T02:39:49;1.73;;;1.00;;
20449;SDS011;10384;51.940;8.432;2023-07-31T02:42:15;1.67;;;1.00;;
20449;SDS011;10384;51.940;8.432;2023-07-31T02:44:41;2.00;;;1.20;;
20449;SDS011;10384;51.940;8.432;2023-07-31T02:47:06;1.47;;;0.83;;
20449;SDS011;10384;51.940;8.432;2023-07-31T02:49:32;2.87;;;1.13;;
20449;SDS011;10384;51.940;8.432;2023-07-31T02:51:58;3.87;;;1.27;;
20449;SDS011;10384;51.940;8.432;2023-07-31T02:54:24;3.17;;;1.40;;
20449;SDS011;10384;51.940;8.432;2023-07-31T02:56:50;3.33;;;1.63;;
20449;SDS011;10384;51.940;8.432;2023-07-31T02:59:16;2.60;;;1.50;;
20449;SDS011;10384;51.940;8.432;2023-07-31T03:01:43;4.00;;;2.00;;
20449;SDS011;10384;51.940;8.432;2023-07-31T03:04:09;3.37;;;2.30;;
20449;SDS011;10384;51.940;8.432;2023-07-31T03:06:35;3.83;;;2.10;;
20449;SDS011;10384;51.940;8.432;2023-07-31T03:09:01;5.70;;;2.50;;
20449;SDS011;10384;51.940;8.432;2023-07-31T03:11:27;5.67;;;2.77;;
20449;SDS011;10384;51.940;8.432;2023-07-31T03:13:53;8.17;;;3.70;;
20449;SDS011;10384;51.940;8.432;2023-07-31T03:16:19;8.03;;;3.47;;
20449;SDS011;10384;51.940;8.432;2023-07-31T03:18:45;9.87;;;4.50;;
20449;SDS011;10384;51.940;8.432;2023-07-31T03:21:11;11.33;;;4.60;;
20449;SDS011;10384;51.940;8.432;2023-07-31T03:23:37;10.93;;;5.07;;
20449;SDS011;10384;51.940;8.432;2023-07-31T03:26:05;10.17;;;5.67;;
20449;SDS011;10384;51.940;8.432;2023-07-31T03:28:31;13.33;;;6.20;;
20449;SDS011;10384;51.940;8.432;2023-07-31T03:30:57;13.53;;;5.20;;
20449;SDS011;10384;51.940;8.432;2023-07-31T03:33:23;12.70;;;5.43;;
20449;SDS011;10384;51.940;8.432;2023-07-31T03:35:49;15.63;;;6.23;;
20449;SDS011;10384;51.940;8.432;2023-07-31T03:38:15;13.17;;;5.70;;
20449;SDS011;10384;51.940;8.432;2023-07-31T03:40:41;12.47;;;5.73;;
20449;SDS011;10384;51.940;8.432;2023-07-31T03:43:07;15.83;;;6.60;;
20449;SDS011;10384;51.940;8.432;2023-07-31T03:45:33;14.73;;;5.87;;
20449;SDS011;10384;51.940;8.432;2023-07-31T03:47:59;14.57;;;5.43;;
20449;SDS011;10384;51.940;8.432;2023-07-31T03:50:25;13.93;;;5.67;;
20449;SDS011;10384;51.940;8.432;2023-07-31T03:52:52;13.13;;;5.53;;
20449;SDS011;10384;51.940;8.432;2023-07-31T03:55:18;16.87;;;6.63;;
20449;SDS011;10384;51.940;8.432;2023-07-31T03:57:44;13.07;;;5.77;;
20449;SDS011;10384;51.940;8.432;2023-07-31T04:00:10;15.47;;;5.80;;
20449;SDS011;10384;51.940;8.432;2023-07-31T04:02:36;10.87;;;5.57;;
20449;SDS011;10384;51.940;8.432;2023-07-31T04:05:02;12.80;;;5.43;;
20449;SDS011;10384;51.940;8.432;2023-07-31T04:07:28;12.37;;;4.90;;
20449;SDS011;10384;51.940;8.432;2023-07-31T04:09:55;14.10;;;6.30;;
20449;SDS011;10384;51.940;8.432;2023-07-31T04:12:21;10.40;;;5.30;;
20449;SDS011;10384;51.940;8.432;2023-07-31T04:14:47;15.93;;;5.50;;
20449;SDS011;10384;51.940;8.432;2023-07-31T04:17:13;12.53;;;6.03;;
20449;SDS011;10384;51.940;8.432;2023-07-31T04:19:39;16.33;;;5.63;;
20449;SDS011;10384;51.940;8.432;2023-07-31T04:22:05;17.07;;;6.13;;
20449;SDS011;10384;51.940;8.432;2023-07-31T04:24:31;15.97;;;5.67;;
20449;SDS011;10384;51.940;8.432;2023-07-31T04:26:57;14.30;;;5.23;;
20449;SDS011;10384;51.940;8.432;2023-07-31T04:29:23;13.60;;;5.20;;
20449;SDS011;10384;51.940;8.432;2023-07-31T04:31:49;12.27;;;5.37;;
20449;SDS011;10384;51.940;8.432;2023-07-31T04:34:15;10.97;;;5.13;;
20449;SDS011;10384;51.940;8.432;2023-07-31T04:36:41;12.53;;;5.53;;
20449;SDS011;10384;51.940;8.432;2023-07-31T04:39:07;10.80;;;4.90;;
20449;SDS011;10384;51.940;8.432;2023-07-31T04:41:33;12.23;;;4.80;;
20449;SDS011;10384;51.940;8.432;2023-07-31T04:43:59;14.60;;;5.20;;
20449;SDS011;10384;51.940;8.432;2023-07-31T04:46:25;18.37;;;5.33;;
20449;SDS011;10384;51.940;8.432;2023-07-31T04:48:51;15.80;;;5.27;;
20449;SDS011;10384;51.940;8.432;2023-07-31T04:51:16;16.37;;;5.37;;
20449;SDS011;10384;51.940;8.432;2023-07-31T04:53:42;7.87;;;4.00;;
20449;SDS011;10384;51.940;8.432;2023-07-31T04:56:08;12.53;;;4.27;;
20449;SDS011;10384;51.940;8.432;2023-07-31T04:58:34;11.57;;;4.47;;
20449;SDS011;10384;51.940;8.432;2023-07-31T05:01:00;12.43;;;4.37;;
20449;SDS011;10384;51.940;8.432;2023-07-31T05:03:26;10.87;;;4.13;;
20449;SDS011;10384;51.940;8.432;2023-07-31T05:05:52;10.93;;;4.10;;
20449;SDS011;10384;51.940;8.432;2023-07-31T05:08:18;12.70;;;3.90;;
20449;SDS011;10384;51.940;8.432;2023-07-31T05:10:44;9.47;;;3.90;;
20449;SDS011;10384;51.940;8.432;2023-07-31T05:13:10;11.57;;;4.20;;
20449;SDS011;10384;51.940;8.432;2023-07-31T05:15:36;11.00;;;4.37;;
20449;SDS011;10384;51.940;8.432;2023-07-31T05:18:02;12.13;;;4.40;;
20449;SDS011;10384;51.940;8.432;2023-07-31T05:20:28;11.87;;;4.57;;
20449;SDS011;10384;51.940;8.432;2023-07-31T05:22:54;9.87;;;3.67;;
20449;SDS011;10384;51.940;8.432;2023-07-31T05:25:20;9.67;;;4.73;;
20449;SDS011;10384;51.940;8.432;2023-07-31T05:27:46;12.27;;;4.00;;
20449;SDS011;10384;51.940;8.432;2023-07-31T05:30:12;13.00;;;4.00;;
20449;SDS011;10384;51.940;8.432;2023-07-31T05:32:38;13.80;;;4.57;;
20449;SDS011;10384;51.940;8.432;2023-07-31T05:35:04;9.07;;;3.60;;
20449;SDS011;10384;51.940;8.432;2023-07-31T05:37:30;10.60;;;3.87;;
20449;SDS011;10384;51.940;8.432;2023-07-31T05:39:56;12.10;;;3.60;;
20449;SDS011;10384;51.940;8.432;2023-07-31T05:42:22;12.20;;;4.67;;
20449;SDS011;10384;51.940;8.432;2023-07-31T05:44:48;9.63;;;3.33;;
20449;SDS011;10384;51.940;8.432;2023-07-31T05:47:14;6.80;;;2.80;;
20449;SDS011;10384;51.940;8.432;2023-07-31T05:49:40;9.30;;;3.80;;
20449;SDS011;10384;51.940;8.432;2023-07-31T05:52:06;11.87;;;3.93;;
20449;SDS011;10384;51.940;8.432;2023-07-31T05:54:32;12.77;;;4.23;;
20449;SDS011;10384;51.940;8.432;2023-07-31T05:56:58;6.83;;;3.47;;
20449;SDS011;10384;51.940;8.432;2023-07-31T05:59:24;15.83;;;4.70;;
20449;SDS011;10384;51.940;8.432;2023-07-31T06:01:50;10.17;;;3.60;;
20449;SDS011;10384;51.940;8.432;2023-07-31T06:04:16;11.07;;;4.77;;
20449;SDS011;10384;51.940;8.432;2023-07-31T06:06:42;9.37;;;3.80;;
20449;SDS011;10384;51.940;8.432;2023-07-31T06:09:08;12.47;;;4.20;;
20449;SDS011;10384;51.940;8.432;2023-07-31T06:11:34;11.73;;;3.77;;
20449;SDS011;10384;51.940;8.432;2023-07-31T06:14:00;10.37;;;4.40;;
20449;SDS011;10384;51.940;8.432;2023-07-31T06:16:26;12.87;;;3.60;;
20449;SDS011;10384;51.940;8.432;2023-07-31T06:18:52;9.17;;;4.00;;
20449;SDS011;10384;51.940;8.432;2023-07-31T06:21:18;7.40;;;3.83;;
20449;SDS011;10384;51.940;8.432;2023-07-31T06:23:44;10.77;;;3.63;;
20449;SDS011;10384;51.940;8.432;2023-07-31T06:26:10;13.17;;;4.77;;
20449;SDS011;10384;51.940;8.432;2023-07-31T06:28:36;6.90;;;3.33;;
20449;SDS011;10384;51.940;8.432;2023-07-31T06:31:02;10.10;;;3.63;;
20449;SDS011;10384;51.940;8.432;2023-07-31T06:33:28;8.97;;;4.30;;
20449;SDS011;10384;51.940;8.432;2023-07-31T06:35:54;12.77;;;3.60;;
20449;SDS011;10384;51.940;8.432;2023-07-31T06:38:25;12.07;;;3.53;;
20449;SDS011;10384;51.940;8.432;2023-07-31T06:40:52;8.73;;;3.33;;
20449;SDS011;10384;51.940;8.432;2023-07-31T06:43:18;7.57;;;3.07;;
20449;SDS011;10384;51.940;8.432;2023-07-31T06:45:44;8.10;;;2.87;;
20449;SDS011;10384;51.940;8.432;2023-07-31T06:48:11;7.50;;;3.70;;
20449;SDS011;10384;51.940;8.432;2023-07-31T06:50:37;18.37;;;5.80;;
20449;SDS011;10384;51.940;8.432;2023-07-31T06:53:03;9.33;;;3.77;;
20449;SDS011;10384;51.940;8.432;2023-07-31T06:55:29;14.00;;;3.93;;
20449;SDS011;10384;51.940;8.432;2023-07-31T06:57:55;12.07;;;4.63;;
20449;SDS011;10384;51.940;8.432;2023-07-31T07:00:21;10.97;;;3.57;;
20449;SDS011;10384;51.940;8.432;2023-07-31T07:02:48;9.33;;;3.50;;
20449;SDS011;10384;51.940;8.432;2023-07-31T07:05:14;10.47;;;3.80;;
20449;SDS011;10384;51.940;8.432;2023-07-31T07:07:40;9.23;;;3.63;;
20449;SDS011;10384;51.940;8.432;2023-07-31T07:10:06;12.53;;;3.87;;
20449;SDS011;10384;51.940;8.432;2023-07-31T07:12:33;8.43;;;3.47;;
20449;SDS011;10384;51.940;8.432;2023-07-31T07:14:59;10.10;;;3.57;;
20449;SDS011;10384;51.940;8.432;2023-07-31T07:17:26;11.37;;;4.00;;
20449;SDS011;10384;51.940;8.432;2023-07-31T07:19:53;10.97;;;3.90;;
20449;SDS011;10384;51.940;8.432;2023-07-31T07:22:20;10.20;;;3.70;;
20449;SDS011;10384;51.940;8.432;2023-07-31T07:24:46;10.47;;;3.60;;
20449;SDS011;10384;51.940;8.432;2023-07-31T07:27:12;8.50;;;3.33;;
20449;SDS011;10384;51.940;8.432;2023-07-31T07:29:38;5.33;;;2.93;;
20449;SDS011;10384;51.940;8.432;2023-07-31T07:32:04;14.00;;;3.53;;
20449;SDS011;10384;51.940;8.432;2023-07-31T07:34:30;7.97;;;3.33;;
20449;SDS011;10384;51.940;8.432;2023-07-31T07:36:56;8.30;;;3.27;;
20449;SDS011;10384;51.940;8.432;2023-07-31T07:39:22;8.40;;;4.03;;
20449;SDS011;10384;51.940;8.432;2023-07-31T07:41:48;5.87;;;3.07;;
20449;SDS011;10384;51.940;8.432;2023-07-31T07:44:14;8.13;;;3.03;;
20449;SDS011;10384;51.940;8.432;2023-07-31T07:46:40;7.50;;;3.77;;
20449;SDS011;10384;51.940;8.432;2023-07-31T07:49:06;9.23;;;3.23;;
20449;SDS011;10384;51.940;8.432;2023-07-31T07:51:32;7.47;;;2.90;;
20449;SDS011;10384;51.940;8.432;2023-07-31T07:53:58;6.47;;;2.90;;
20449;SDS011;10384;51.940;8.432;2023-07-31T07:56:25;6.37;;;3.10;;
20449;SDS011;10384;51.940;8.432;2023-07-31T07:58:51;8.20;;;3.00;;
20449;SDS011;10384;51.940;8.432;2023-07-31T08:01:17;6.77;;;3.80;;
20449;SDS011;10384;51.940;8.432;2023-07-31T08:03:43;5.33;;;2.80;;
20449;SDS011;10384;51.940;8.432;2023-07-31T08:06:09;7.37;;;2.73;;
20449;SDS011;10384;51.940;8.432;2023-07-31T08:08:36;10.73;;;4.00;;
20449;SDS011;10384;51.940;8.432;2023-07-31T08:11:02;6.87;;;3.60;;
20449;SDS011;10384;51.940;8.432;2023-07-31T08:13:28;6.20;;;2.90;;
20449;SDS011;10384;51.940;8.432;2023-07-31T08:15:54;6.73;;;2.60;;
20449;SDS011;10384;51.940;8.432;2023-07-31T08:18:20;6.93;;;2.73;;
20449;SDS011;10384;51.940;8.432;2023-07-31T08:20:46;7.17;;;3.30;;
20449;SDS011;10384;51.940;8.432;2023-07-31T08:23:12;6.23;;;2.93;;
20449;SDS011;10384;51.940;8.432;2023-07-31T08:25:38;7.77;;;3.03;;
20449;SDS011;10384;51.940;8.432;2023-07-31T08:28:04;6.20;;;3.17;;
20449;SDS011;10384;51.940;8.432;2023-07-31T08:30:30;5.27;;;2.73;;
20449;SDS011;10384;51.940;8.432;2023-07-31T08:32:58;8.63;;;3.70;;
20449;SDS011;10384;51.940;8.432;2023-07-31T08:35:24;9.97;;;3.33;;
20449;SDS011;10384;51.940;8.432;2023-07-31T08:37:50;11.47;;;3.70;;
20449;SDS011;10384;51.940;8.432;2023-07-31T08:40:16;8.17;;;4.33;;
20449;SDS011;10384;51.940;8.432;2023-07-31T08:42:46;8.73;;;4.17;;
20449;SDS011;10384;51.940;8.432;2023-07-31T08:45:16;10.50;;;3.80;;
20449;SDS011;10384;51.940;8.432;2023-07-31T08:47:44;7.73;;;3.60;;
20449;SDS011;10384;51.940;8.432;2023-07-31T08:50:10;11.07;;;3.60;;
20449;SDS011;10384;51.940;8.432;2023-07-31T08:52:37;7.30;;;3.40;;
20449;SDS011;10384;51.940;8.432;2023-07-31T08:55:04;8.67;;;3.70;;
20449;SDS011;10384;51.940;8.432;2023-07-31T08:57:30;8.43;;;3.43;;
20449;SDS011;10384;51.940;8.432;2023-07-31T08:59:57;7.57;;;3.10;;
20449;SDS011;10384;51.940;8.432;2023-07-31T09:02:23;5.73;;;3.13;;
20449;SDS011;10384;51.940;8.432;2023-07-31T09:04:51;7.30;;;3.30;;
20449;SDS011;10384;51.940;8.432;2023-07-31T09:07:17;7.97;;;3.20;;
20449;SDS011;10384;51.940;8.432;2023-07-31T09:09:44;5.93;;;3.40;;
20449;SDS011;10384;51.940;8.432;2023-07-31T09:12:11;11.90;;;4.33;;
20449;SDS011;10384;51.940;8.432;2023-07-31T09:14:37;8.03;;;3.03;;
20449;SDS011;10384;51.940;8.432;2023-07-31T09:17:03;7.13;;;3.10;;
20449;SDS011;10384;51.940;8.432;2023-07-31T09:19:32;6.90;;;3.07;;
20449;SDS011;10384;51.940;8.432;2023-07-31T09:22:01;5.67;;;3.00;;
20449;SDS011;10384;51.940;8.432;2023-07-31T09:24:31;5.67;;;2.63;;
20449;SDS011;10384;51.940;8.432;2023-07-31T09:26:58;5.77;;;2.63;;
20449;SDS011;10384;51.940;8.432;2023-07-31T09:29:25;5.23;;;2.90;;
20449;SDS011;10384;51.940;8.432;2023-07-31T09:31:51;7.47;;;3.20;;
20449;SDS011;10384;51.940;8.432;2023-07-31T09:34:18;7.77;;;3.30;;
20449;SDS011;10384;51.940;8.432;2023-07-31T09:36:48;7.00;;;3.07;;
20449;SDS011;10384;51.940;8.432;2023-07-31T09:39:15;5.63;;;3.37;;
20449;SDS011;10384;51.940;8.432;2023-07-31T09:41:45;9.13;;;2.90;;
20449;SDS011;10384;51.940;8.432;2023-07-31T09:44:11;6.20;;;2.90;;
20449;SDS011;10384;51.940;8.432;2023-07-31T09:46:37;6.27;;;2.63;;
20449;SDS011;10384;51.940;8.432;2023-07-31T09:49:13;5.90;;;3.10;;
20449;SDS011;10384;51.940;8.432;2023-07-31T09:51:40;6.70;;;2.60;;
20449;SDS011;10384;51.940;8.432;2023-07-31T09:54:13;6.00;;;2.77;;
20449;SDS011;10384;51.940;8.432;2023-07-31T09:56:41;4.47;;;2.63;;
20449;SDS011;10384;51.940;8.432;2023-07-31T09:59:07;6.03;;;2.47;;
20449;SDS011;10384;51.940;8.432;2023-07-31T10:01:36;6.77;;;2.50;;
20449;SDS011;10384;51.940;8.432;2023-07-31T10:04:02;6.60;;;2.37;;
20449;SDS011;10384;51.940;8.432;2023-07-31T10:06:29;5.03;;;2.60;;
20449;SDS011;10384;51.940;8.432;2023-07-31T10:08:55;6.33;;;2.53;;
20449;SDS011;10384;51.940;8.432;2023-07-31T10:11:22;6.47;;;2.90;;
20449;SDS011;10384;51.940;8.432;2023-07-31T10:13:50;6.43;;;2.77;;
20449;SDS011;10384;51.940;8.432;2023-07-31T10:16:16;5.80;;;2.30;;
20449;SDS011;10384;51.940;8.432;2023-07-31T10:18:43;4.20;;;2.30;;
20449;SDS011;10384;51.940;8.432;2023-07-31T10:21:09;5.13;;;2.40;;
20449;SDS011;10384;51.940;8.432;2023-07-31T10:23:36;4.73;;;2.27;;
20449;SDS011;10384;51.940;8.432;2023-07-31T10:26:03;3.03;;;1.70;;
20449;SDS011;10384;51.940;8.432;2023-07-31T10:28:31;3.07;;;1.83;;
20449;SDS011;10384;51.940;8.432;2023-07-31T10:30:58;2.90;;;1.70;;
20449;SDS011;10384;51.940;8.432;2023-07-31T10:33:24;2.13;;;1.47;;
20449;SDS011;10384;51.940;8.432;2023-07-31T10:35:50;4.23;;;1.63;;
20449;SDS011;10384;51.940;8.432;2023-07-31T10:38:24;2.47;;;1.50;;
20449;SDS011;10384;51.940;8.432;2023-07-31T10:40:50;3.33;;;1.40;;
20449;SDS011;10384;51.940;8.432;2023-07-31T10:43:25;3.13;;;1.50;;
20449;SDS011;10384;51.940;8.432;2023-07-31T10:45:52;2.67;;;1.70;;
20449;SDS011;10384;51.940;8.432;2023-07-31T10:48:19;2.77;;;1.50;;
20449;SDS011;10384;51.940;8.432;2023-07-31T10:50:48;3.13;;;1.53;;
20449;SDS011;10384;51.940;8.432;2023-07-31T10:53:25;2.60;;;1.67;;
20449;SDS011;10384;51.940;8.432;2023-07-31T10:55:51;3.10;;;1.40;;
20449;SDS011;10384;51.940;8.432;2023-07-31T10:58:18;3.10;;;1.30;;
20449;SDS011;10384;51.940;8.432;2023-07-31T11:00:44;1.87;;;1.40;;
20449;SDS011;10384;51.940;8.432;2023-07-31T11:03:14;2.53;;;1.40;;
20449;SDS011;10384;51.940;8.432;2023-07-31T11:08:10;2.20;;;1.43;;
20449;SDS011;10384;51.940;8.432;2023-07-31T11:10:36;3.60;;;1.30;;
20449;SDS011;10384;51.940;8.432;2023-07-31T11:13:04;2.97;;;1.40;;
20449;SDS011;10384;51.940;8.432;2023-07-31T11:15:30;2.23;;;1.40;;
20449;SDS011;10384;51.940;8.432;2023-07-31T11:17:56;2.70;;;1.30;;
20449;SDS011;10384;51.940;8.432;2023-07-31T11:20:25;2.07;;;1.30;;
20449;SDS011;10384;51.940;8.432;2023-07-31T11:22:51;2.03;;;1.40;;
20449;SDS011;10384;51.940;8.432;2023-07-31T11:25:17;2.73;;;1.60;;
20449;SDS011;10384;51.940;8.432;2023-07-31T11:27:43;3.23;;;1.90;;
20449;SDS011;10384;51.940;8.432;2023-07-31T11:30:10;3.17;;;1.70;;
20449;SDS011;10384;51.940;8.432;2023-07-31T11:32:36;2.23;;;1.70;;
20449;SDS011;10384;51.940;8.432;2023-07-31T11:35:02;3.20;;;1.90;;
20449;SDS011;10384;51.940;8.432;2023-07-31T11:37:42;3.03;;;1.80;;
20449;SDS011;10384;51.940;8.432;2023-07-31T11:40:09;3.27;;;1.80;;
20449;SDS011;10384;51.940;8.432;2023-07-31T11:42:36;3.30;;;1.93;;
20449;SDS011;10384;51.940;8.432;2023-07-31T11:45:05;4.90;;;1.63;;
20449;SDS011;10384;51.940;8.432;2023-07-31T11:47:34;2.70;;;1.60;;
20449;SDS011;10384;51.940;8.432;2023-07-31T11:50:01;2.20;;;1.40;;
20449;SDS011;10384;51.940;8.432;2023-07-31T11:52:32;4.17;;;1.60;;
20449;SDS011;10384;51.940;8.432;2023-07-31T11:54:59;2.57;;;1.70;;
20449;SDS011;10384;51.940;8.432;2023-07-31T11:57:25;3.53;;;1.93;;
20449;SDS011;10384;51.940;8.432;2023-07-31T11:59:52;2.07;;;1.60;;
20449;SDS011;10384;51.940;8.432;2023-07-31T12:02:21;3.63;;;1.60;;
20449;SDS011;10384;51.940;8.432;2023-07-31T12:04:47;1.97;;;1.33;;
20449;SDS011;10384;51.940;8.432;2023-07-31T12:07:13;3.03;;;1.87;;
20449;SDS011;10384;51.940;8.432;2023-07-31T12:09:50;3.27;;;1.80;;
20449;SDS011;10384;51.940;8.432;2023-07-31T12:12:19;4.97;;;1.60;;
20449;SDS011;10384;51.940;8.432;2023-07-31T12:14:45;2.23;;;1.50;;
20449;SDS011;10384;51.940;8.432;2023-07-31T12:17:11;2.00;;;1.53;;
20449;SDS011;10384;51.940;8.432;2023-07-31T12:19:37;2.57;;;1.60;;
20449;SDS011;10384;51.940;8.432;2023-07-31T12:22:10;3.40;;;1.70;;
20449;SDS011;10384;51.940;8.432;2023-07-31T12:24:37;3.40;;;1.60;;
20449;SDS011;10384;51.940;8.432;2023-07-31T12:27:11;2.90;;;1.50;;
20449;SDS011;10384;51.940;8.432;2023-07-31T12:29:37;2.40;;;1.63;;
20449;SDS011;10384;51.940;8.432;2023-07-31T12:32:04;1.80;;;1.20;;
20449;SDS011;10384;51.940;8.432;2023-07-31T12:34:30;3.57;;;1.50;;
20449;SDS011;10384;51.940;8.432;2023-07-31T12:36:56;1.97;;;1.20;;
20449;SDS011;10384;51.940;8.432;2023-07-31T12:39:23;1.80;;;1.30;;
20449;SDS011;10384;51.940;8.432;2023-07-31T12:41:49;3.30;;;1.50;;
20449;SDS011;10384;51.940;8.432;2023-07-31T12:44:15;1.67;;;1.30;;
20449;SDS011;10384;51.940;8.432;2023-07-31T12:46:41;2.63;;;1.40;;
20449;SDS011;10384;51.940;8.432;2023-07-31T12:49:07;2.70;;;1.70;;
20449;SDS011;10384;51.940;8.432;2023-07-31T12:51:33;3.13;;;1.57;;
20449;SDS011;10384;51.940;8.432;2023-07-31T12:53:59;14.70;;;1.90;;
20449;SDS011;10384;51.940;8.432;2023-07-31T12:56:25;2.50;;;1.90;;
20449;SDS011;10384;51.940;8.432;2023-07-31T12:58:51;4.87;;;1.70;;
20449;SDS011;10384;51.940;8.432;2023-07-31T13:01:16;4.23;;;1.90;;
20449;SDS011;10384;51.940;8.432;2023-07-31T13:03:42;3.73;;;2.23;;
20449;SDS011;10384;51.940;8.432;2023-07-31T13:06:08;4.90;;;2.10;;
20449;SDS011;10384;51.940;8.432;2023-07-31T13:08:34;4.63;;;2.20;;
20449;SDS011;10384;51.940;8.432;2023-07-31T13:11:00;3.70;;;2.60;;
20449;SDS011;10384;51.940;8.432;2023-07-31T13:13:26;5.27;;;2.60;;
20449;SDS011;10384;51.940;8.432;2023-07-31T13:15:52;4.17;;;2.40;;
20449;SDS011;10384;51.940;8.432;2023-07-31T13:18:18;6.00;;;2.50;;
20449;SDS011;10384;51.940;8.432;2023-07-31T13:20:44;4.10;;;2.60;;
20449;SDS011;10384;51.940;8.432;2023-07-31T13:23:10;3.87;;;2.23;;
20449;SDS011;10384;51.940;8.432;2023-07-31T13:25:36;3.87;;;2.30;;
20449;SDS011;10384;51.940;8.432;2023-07-31T13:28:02;3.83;;;2.17;;
20449;SDS011;10384;51.940;8.432;2023-07-31T13:30:28;4.43;;;2.43;;
20449;SDS011;10384;51.940;8.432;2023-07-31T13:32:54;4.37;;;2.53;;
20449;SDS011;10384;51.940;8.432;2023-07-31T13:35:20;3.90;;;2.30;;
20449;SDS011;10384;51.940;8.432;2023-07-31T13:37:46;4.03;;;2.23;;
20449;SDS011;10384;51.940;8.432;2023-07-31T13:40:12;3.50;;;2.10;;
20449;SDS011;10384;51.940;8.432;2023-07-31T13:42:38;4.80;;;2.37;;
20449;SDS011;10384;51.940;8.432;2023-07-31T13:45:04;4.10;;;2.37;;
20449;SDS011;10384;51.940;8.432;2023-07-31T13:47:30;3.00;;;2.40;;
20449;SDS011;10384;51.940;8.432;2023-07-31T13:49:57;4.93;;;2.47;;
20449;SDS011;10384;51.940;8.432;2023-07-31T13:52:23;5.50;;;2.50;;
20449;SDS011;10384;51.940;8.432;2023-07-31T13:54:49;4.57;;;2.47;;
20449;SDS011;10384;51.940;8.432;2023-07-31T13:57:15;7.17;;;3.73;;
20449;SDS011;10384;51.940;8.432;2023-07-31T13:59:40;4.93;;;2.30;;
20449;SDS011;10384;51.940;8.432;2023-07-31T14:02:06;4.87;;;2.47;;
20449;SDS011;10384;51.940;8.432;2023-07-31T14:04:32;4.13;;;2.50;;
20449;SDS011;10384;51.940;8.432;2023-07-31T14:06:58;3.30;;;2.13;;
20449;SDS011;10384;51.940;8.432;2023-07-31T14:09:25;4.00;;;2.20;;
20449;SDS011;10384;51.940;8.432;2023-07-31T14:11:52;4.00;;;2.50;;
20449;SDS011;10384;51.940;8.432;2023-07-31T14:14:18;4.23;;;2.77;;
20449;SDS011;10384;51.940;8.432;2023-07-31T14:16:44;2.90;;;2.03;;
20449;SDS011;10384;51.940;8.432;2023-07-31T14:19:10;3.47;;;2.30;;
20449;SDS011;10384;51.940;8.432;2023-07-31T14:21:36;3.77;;;2.30;;
20449;SDS011;10384;51.940;8.432;2023-07-31T14:24:02;4.37;;;2.47;;
20449;SDS011;10384;51.940;8.432;2023-07-31T14:26:28;4.50;;;2.73;;
20449;SDS011;10384;51.940;8.432;2023-07-31T14:28:54;4.07;;;2.23;;
20449;SDS011;10384;51.940;8.432;2023-07-31T14:31:20;3.57;;;2.03;;
20449;SDS011;10384;51.940;8.432;2023-07-31T14:33:46;3.43;;;2.27;;
20449;SDS011;10384;51.940;8.432;2023-07-31T14:36:12;3.47;;;1.80;;
20449;SDS011;10384;51.940;8.432;2023-07-31T14:38:38;3.97;;;1.90;;
20449;SDS011;10384;51.940;8.432;2023-07-31T14:41:04;2.30;;;1.63;;
20449;SDS011;10384;51.940;8.432;2023-07-31T14:43:30;3.40;;;1.80;;
20449;SDS011;10384;51.940;8.432;2023-07-31T14:45:56;2.50;;;1.70;;
20449;SDS011;10384;51.940;8.432;2023-07-31T14:48:24;2.63;;;1.60;;